createdAt,value
2017-09-30T00:01:06.491Z,41.10
2017-09-30T00:03:34.192Z,41.40
2017-09-30T00:06:01.650Z,41.40
2017-09-30T00:08:29.100Z,41.40
2017-09-30T00:10:56.515Z,41.20
2017-09-30T00:13:23.946Z,41.20
2017-09-30T00:15:51.384Z,41.30
2017-09-30T00:18:18.844Z,41.60
2017-09-30T00:20:46.292Z,41.90
2017-09-30T00:23:13.782Z,41.70
2017-09-30T00:25:41.292Z,42.30
2017-09-30T00:28:08.750Z,42.40
2017-09-30T00:30:36.182Z,42.40
2017-09-30T00:33:03.608Z,42.40
2017-09-30T00:35:32.048Z,42.50
2017-09-30T00:37:59.693Z,42.40
2017-09-30T00:40:27.172Z,42.60
2017-09-30T00:42:54.624Z,42.50
2017-09-30T00:45:22.059Z,42.50
2017-09-30T00:47:49.532Z,42.50
2017-09-30T00:50:17.015Z,42.20
2017-09-30T00:52:44.439Z,42.00
2017-09-30T00:55:12.003Z,42.20
2017-09-30T00:57:39.468Z,42.50
2017-09-30T01:00:06.915Z,42.40
2017-09-30T01:02:34.553Z,42.90
2017-09-30T01:05:02.129Z,42.50
2017-09-30T01:07:29.592Z,42.20
2017-09-30T01:09:57.236Z,41.80
2017-09-30T01:12:24.724Z,41.80
2017-09-30T01:14:52.272Z,41.90
2017-09-30T01:17:19.702Z,42.30
2017-09-30T01:19:47.136Z,42.40
2017-09-30T01:22:15.347Z,42.30
2017-09-30T01:24:43.011Z,42.30
2017-09-30T01:27:10.448Z,42.60
2017-09-30T01:29:37.876Z,42.90
2017-09-30T01:32:05.307Z,43.00
2017-09-30T01:34:32.730Z,42.80
2017-09-30T01:37:00.300Z,43.50
2017-09-30T01:39:27.725Z,43.00
2017-09-30T01:41:55.160Z,43.40
2017-09-30T01:44:22.584Z,43.60
2017-09-30T01:46:50.023Z,44.00
2017-09-30T01:49:17.487Z,44.00
2017-09-30T01:51:44.916Z,43.60
2017-09-30T01:54:12.489Z,43.20
2017-09-30T01:56:39.944Z,43.60
2017-09-30T01:59:07.396Z,43.50
2017-09-30T02:01:34.855Z,43.50
2017-09-30T02:04:02.312Z,43.40
2017-09-30T02:06:29.749Z,43.80
2017-09-30T02:08:57.220Z,43.80
2017-09-30T02:11:24.647Z,43.70
2017-09-30T02:13:52.103Z,44.00
2017-09-30T02:16:19.599Z,44.40
2017-09-30T02:18:47.248Z,45.00
2017-09-30T02:21:14.724Z,43.70
2017-09-30T02:23:42.267Z,43.80
2017-09-30T02:26:09.724Z,43.30
2017-09-30T02:28:37.180Z,42.60
2017-09-30T02:31:04.635Z,42.30
2017-09-30T02:33:32.079Z,42.90
2017-09-30T02:35:59.495Z,43.30
2017-09-30T02:38:26.999Z,43.90
2017-09-30T02:40:54.455Z,44.30
2017-09-30T02:43:21.920Z,44.00
2017-09-30T02:45:49.687Z,44.10
2017-09-30T02:48:17.453Z,43.90
2017-09-30T02:50:44.901Z,44.00
2017-09-30T02:53:12.363Z,44.10
2017-09-30T02:55:39.831Z,44.50
2017-09-30T02:58:07.449Z,44.30
2017-09-30T03:00:35.041Z,44.40
2017-09-30T03:03:02.468Z,44.50
2017-09-30T03:05:29.943Z,44.50
2017-09-30T03:07:57.408Z,44.30
2017-09-30T03:10:24.856Z,44.00
2017-09-30T03:12:52.284Z,43.50
2017-09-30T03:15:19.748Z,43.80
2017-09-30T03:17:47.167Z,43.90
2017-09-30T03:20:14.595Z,43.90
2017-09-30T03:22:42.144Z,43.80
2017-09-30T03:25:09.912Z,44.00
2017-09-30T03:27:37.379Z,44.30
2017-09-30T03:30:04.792Z,44.00
2017-09-30T03:32:32.264Z,43.80
2017-09-30T03:34:59.735Z,43.60
2017-09-30T03:37:27.184Z,43.00
2017-09-30T03:39:54.611Z,43.20
2017-09-30T03:42:22.098Z,43.70
2017-09-30T03:44:49.528Z,44.00
2017-09-30T03:47:16.963Z,44.40
2017-09-30T03:49:44.389Z,44.50
2017-09-30T03:52:11.824Z,44.80
2017-09-30T03:54:39.265Z,44.50
2017-09-30T03:57:06.840Z,44.40
2017-09-30T03:59:34.456Z,44.50
2017-09-30T04:02:02.876Z,44.50
2017-09-30T04:04:30.287Z,44.40
2017-09-30T04:06:58.691Z,44.50
2017-09-30T04:09:26.142Z,44.40
2017-09-30T04:11:53.632Z,45.20
2017-09-30T04:14:21.182Z,46.10
2017-09-30T04:16:48.617Z,46.50
2017-09-30T04:19:16.096Z,46.50
2017-09-30T04:21:43.545Z,47.00
2017-09-30T04:24:10.975Z,46.80
2017-09-30T04:26:38.469Z,47.00
2017-09-30T04:29:06.108Z,47.00
2017-09-30T04:31:33.537Z,46.80
2017-09-30T04:34:01.939Z,46.40
2017-09-30T04:36:29.513Z,46.30
2017-09-30T04:38:56.949Z,47.10
2017-09-30T04:41:24.376Z,47.10
2017-09-30T04:43:51.893Z,47.40
2017-09-30T04:46:19.346Z,47.20
2017-09-30T04:48:46.996Z,47.50
2017-09-30T04:51:14.459Z,48.20
2017-09-30T04:53:41.888Z,47.10
2017-09-30T04:56:09.424Z,46.20
2017-09-30T04:58:37.860Z,47.90
2017-09-30T05:01:05.308Z,47.20
2017-09-30T05:03:32.731Z,47.00
2017-09-30T05:06:00.221Z,47.60
2017-09-30T05:08:27.697Z,48.00
2017-09-30T05:10:55.132Z,47.50
2017-09-30T05:13:22.579Z,47.10
2017-09-30T05:15:50.021Z,46.80
2017-09-30T05:18:17.491Z,46.90
2017-09-30T05:20:44.947Z,47.00
2017-09-30T05:23:12.405Z,46.70
2017-09-30T05:25:39.832Z,46.40
2017-09-30T05:28:07.275Z,47.50
2017-09-30T05:30:34.701Z,47.40
2017-09-30T05:33:02.146Z,48.40
2017-09-30T05:35:29.571Z,48.60
2017-09-30T05:37:57.075Z,49.30
2017-09-30T05:40:25.439Z,49.80
2017-09-30T05:42:52.903Z,49.80
2017-09-30T05:45:20.443Z,49.70
2017-09-30T05:47:47.871Z,48.70
2017-09-30T05:50:15.348Z,48.10
2017-09-30T05:52:42.778Z,48.50
2017-09-30T05:55:10.209Z,49.40
2017-09-30T05:57:37.724Z,49.70
2017-09-30T06:00:05.568Z,49.50
2017-09-30T06:02:33.240Z,50.00
2017-09-30T06:05:00.684Z,50.60
2017-09-30T06:07:28.164Z,50.10
2017-09-30T06:09:55.597Z,49.70
2017-09-30T06:12:23.020Z,50.70
2017-09-30T06:14:50.457Z,50.50
2017-09-30T06:17:17.982Z,50.60
2017-09-30T06:19:45.424Z,50.30
2017-09-30T06:22:12.894Z,50.50
2017-09-30T06:24:40.336Z,49.90
2017-09-30T06:27:07.760Z,50.70
2017-09-30T06:29:35.268Z,50.40
2017-09-30T06:32:02.904Z,51.10
2017-09-30T06:34:30.338Z,51.00
2017-09-30T06:36:57.953Z,51.10
2017-09-30T06:39:25.392Z,50.90
2017-09-30T06:41:52.832Z,50.30
2017-09-30T06:44:20.247Z,50.50
2017-09-30T06:46:47.675Z,51.00
2017-09-30T06:49:15.101Z,51.00
2017-09-30T06:51:42.688Z,51.00
2017-09-30T06:54:10.106Z,51.00
2017-09-30T06:56:37.554Z,51.00
2017-09-30T06:59:04.968Z,51.00
2017-09-30T07:01:32.435Z,51.40
2017-09-30T07:03:59.873Z,51.00
2017-09-30T07:06:27.300Z,50.90
2017-09-30T07:08:54.748Z,50.30
2017-09-30T07:11:22.326Z,50.10
2017-09-30T07:13:49.765Z,50.00
2017-09-30T07:16:17.244Z,50.20
2017-09-30T07:18:44.890Z,50.30
2017-09-30T07:21:12.400Z,50.40
2017-09-30T07:23:39.938Z,49.30
2017-09-30T07:26:07.700Z,49.60
2017-09-30T07:28:35.142Z,49.80
2017-09-30T07:31:02.771Z,49.40
2017-09-30T07:33:30.372Z,49.50
2017-09-30T07:35:57.820Z,49.20
2017-09-30T07:38:25.272Z,48.50
2017-09-30T07:40:52.734Z,48.90
2017-09-30T07:43:20.188Z,48.90
2017-09-30T07:45:47.625Z,48.60
2017-09-30T07:48:15.100Z,48.40
2017-09-30T07:50:42.526Z,48.50
2017-09-30T07:53:09.956Z,47.70
2017-09-30T07:55:37.519Z,47.30
2017-09-30T07:58:05.226Z,47.90
2017-09-30T08:00:33.423Z,47.70
2017-09-30T08:03:00.990Z,47.60
2017-09-30T08:05:28.436Z,47.40
2017-09-30T08:07:55.970Z,47.50
2017-09-30T08:10:23.432Z,47.50
2017-09-30T08:12:50.863Z,46.80
2017-09-30T08:15:18.293Z,47.30
2017-09-30T08:17:45.813Z,47.50
2017-09-30T08:20:13.440Z,46.80
2017-09-30T08:22:40.947Z,47.70
2017-09-30T08:25:08.485Z,47.40
2017-09-30T08:27:35.915Z,47.00
2017-09-30T08:30:03.384Z,47.00
2017-09-30T08:32:30.919Z,46.70
2017-09-30T08:34:58.622Z,46.00
2017-09-30T08:37:26.192Z,45.60
2017-09-30T08:39:53.750Z,45.90
2017-09-30T08:42:21.197Z,47.00
2017-09-30T08:44:48.748Z,45.50
2017-09-30T08:47:16.201Z,44.80
2017-09-30T08:49:43.726Z,44.50
2017-09-30T08:52:11.407Z,43.80
2017-09-30T08:54:38.863Z,43.70
2017-09-30T08:57:06.285Z,44.20
2017-09-30T08:59:33.796Z,43.80
2017-09-30T09:02:01.216Z,43.90
2017-09-30T09:04:28.656Z,45.30
2017-09-30T09:06:56.846Z,42.80
2017-09-30T09:09:24.276Z,42.80
2017-09-30T09:11:51.881Z,43.30
2017-09-30T09:14:19.299Z,42.60
2017-09-30T09:16:47.495Z,41.70
2017-09-30T09:19:14.939Z,41.60
2017-09-30T09:21:42.376Z,40.00
2017-09-30T09:24:09.818Z,40.70
2017-09-30T09:26:37.355Z,40.20
2017-09-30T09:29:04.981Z,39.20
2017-09-30T09:31:32.417Z,39.00
2017-09-30T09:34:00.613Z,38.70
2017-09-30T09:36:28.056Z,38.60
2017-09-30T09:38:55.486Z,37.90
2017-09-30T09:41:22.994Z,37.80
2017-09-30T09:43:50.436Z,37.40
2017-09-30T09:46:17.892Z,37.90
2017-09-30T09:48:45.519Z,37.20
2017-09-30T09:51:12.935Z,37.40
2017-09-30T09:53:40.468Z,36.20
2017-09-30T09:56:07.953Z,35.60
2017-09-30T09:58:35.420Z,35.50
2017-09-30T10:01:02.866Z,35.60
2017-09-30T10:03:30.307Z,35.10
2017-09-30T10:05:57.878Z,34.80
2017-09-30T10:08:25.340Z,33.90
2017-09-30T10:10:52.756Z,33.70
2017-09-30T10:13:20.191Z,33.00
2017-09-30T10:15:47.620Z,33.70
2017-09-30T10:18:15.145Z,32.10
2017-09-30T10:20:42.572Z,33.10
2017-09-30T10:23:10.004Z,32.30
2017-09-30T10:25:37.427Z,31.90
2017-09-30T10:28:04.852Z,31.30
2017-09-30T10:30:32.294Z,31.70
2017-09-30T10:33:00.476Z,30.90
2017-09-30T10:35:27.920Z,30.90
2017-09-30T10:37:55.349Z,31.10
2017-09-30T10:40:22.779Z,29.60
2017-09-30T10:42:50.199Z,30.00
2017-09-30T10:45:17.637Z,29.50
2017-09-30T10:47:46.741Z,30.00
2017-09-30T10:50:14.940Z,30.00
2017-09-30T10:52:42.378Z,30.00
2017-09-30T10:55:09.833Z,29.10
2017-09-30T10:57:37.256Z,29.20
2017-09-30T11:00:04.701Z,29.50
2017-09-30T11:02:32.123Z,29.80
2017-09-30T11:04:59.568Z,29.20
2017-09-30T11:07:27.004Z,28.80
2017-09-30T11:09:55.188Z,28.50
2017-09-30T11:12:22.816Z,28.50
2017-09-30T11:14:50.248Z,28.20
2017-09-30T11:17:17.679Z,28.90
2017-09-30T11:19:45.111Z,29.00
2017-09-30T11:22:12.641Z,27.50
2017-09-30T11:24:40.068Z,26.40
2017-09-30T11:27:07.616Z,25.00
2017-09-30T11:29:35.252Z,25.10
2017-09-30T11:32:02.747Z,25.90
2017-09-30T11:34:30.288Z,25.30
2017-09-30T11:36:58.076Z,25.30
2017-09-30T11:39:25.513Z,24.20
2017-09-30T11:41:53.274Z,24.60
2017-09-30T11:44:20.721Z,24.40
2017-09-30T11:46:48.148Z,23.90
2017-09-30T11:49:15.634Z,24.10
2017-09-30T11:51:43.079Z,23.10
2017-09-30T11:54:10.546Z,22.40
2017-09-30T11:56:37.976Z,22.90
2017-09-30T11:59:05.409Z,23.00
2017-09-30T12:01:32.832Z,23.80
2017-09-30T12:04:00.269Z,23.20
2017-09-30T12:06:27.708Z,22.90
2017-09-30T12:08:55.145Z,23.40
2017-09-30T12:11:23.335Z,23.50
2017-09-30T12:13:50.815Z,23.40
2017-09-30T12:16:18.593Z,23.20
2017-09-30T12:18:46.323Z,23.30
2017-09-30T12:21:13.757Z,23.70
2017-09-30T12:23:41.256Z,24.00
2017-09-30T12:26:08.900Z,24.40
2017-09-30T12:28:36.349Z,24.60
2017-09-30T12:31:03.928Z,24.80
2017-09-30T12:33:31.356Z,24.40
2017-09-30T12:35:58.889Z,24.50
2017-09-30T12:38:26.318Z,23.10
2017-09-30T12:40:54.063Z,21.10
2017-09-30T12:43:21.516Z,21.60
2017-09-30T12:45:48.973Z,21.70
2017-09-30T12:48:16.433Z,21.10
2017-09-30T12:50:43.868Z,20.20
2017-09-30T12:53:11.516Z,21.60
2017-09-30T12:55:39.111Z,21.50
2017-09-30T12:58:06.549Z,21.80
2017-09-30T13:00:33.980Z,22.20
2017-09-30T13:03:01.411Z,22.30
2017-09-30T13:05:28.830Z,22.50
2017-09-30T13:07:56.392Z,23.10
2017-09-30T13:10:24.028Z,23.20
2017-09-30T13:12:51.615Z,24.10
2017-09-30T13:15:19.064Z,24.70
2017-09-30T13:17:46.479Z,25.20
2017-09-30T13:20:13.906Z,25.70
2017-09-30T13:22:41.352Z,26.10
2017-09-30T13:25:08.798Z,27.00
2017-09-30T13:27:36.360Z,27.00
2017-09-30T13:30:03.787Z,26.70
2017-09-30T13:32:31.227Z,26.70
2017-09-30T13:34:58.647Z,27.90
2017-09-30T13:37:26.081Z,28.50
2017-09-30T13:39:53.507Z,28.80
2017-09-30T13:42:21.020Z,29.30
2017-09-30T13:44:48.548Z,29.90
2017-09-30T13:47:15.972Z,29.10
2017-09-30T13:49:43.395Z,30.10
2017-09-30T13:52:10.900Z,30.00
2017-09-30T13:54:38.356Z,30.30
2017-09-30T13:57:05.780Z,31.10
2017-09-30T13:59:33.202Z,23.40
2017-09-30T14:02:00.732Z,23.00
2017-09-30T14:04:28.192Z,23.20
2017-09-30T14:06:55.606Z,23.50
2017-09-30T14:09:23.058Z,23.50
2017-09-30T14:11:50.547Z,25.30
2017-09-30T14:14:18.012Z,25.40
2017-09-30T14:16:45.449Z,26.10
2017-09-30T14:19:12.865Z,25.80
2017-09-30T14:21:40.383Z,27.40
2017-09-30T14:24:08.007Z,29.10
2017-09-30T14:26:36.210Z,29.50
2017-09-30T14:29:03.615Z,29.50
2017-09-30T14:31:31.044Z,30.00
2017-09-30T14:33:58.501Z,30.50
2017-09-30T14:36:25.994Z,30.60
2017-09-30T14:38:53.500Z,31.40
2017-09-30T14:41:20.924Z,31.20
2017-09-30T14:43:48.428Z,31.50
2017-09-30T14:46:15.867Z,31.60
2017-09-30T14:48:43.275Z,32.00
2017-09-30T14:51:10.789Z,33.30
2017-09-30T14:53:38.423Z,33.10
2017-09-30T14:56:05.995Z,33.50
2017-09-30T14:58:33.432Z,34.20
2017-09-30T15:01:00.844Z,33.80
2017-09-30T15:03:28.298Z,34.40
2017-09-30T15:05:55.712Z,33.80
2017-09-30T15:08:23.281Z,35.40
2017-09-30T15:10:50.909Z,36.20
2017-09-30T15:13:19.117Z,37.20
2017-09-30T15:15:46.748Z,37.00
2017-09-30T15:18:14.336Z,38.20
2017-09-30T15:20:41.760Z,38.60
2017-09-30T15:23:09.257Z,38.90
2017-09-30T15:25:36.704Z,38.70
2017-09-30T15:28:04.137Z,38.90
2017-09-30T15:30:31.568Z,38.50
2017-09-30T15:32:59.075Z,38.90
2017-09-30T15:35:26.496Z,37.80
2017-09-30T15:37:53.912Z,37.40
2017-09-30T15:40:21.435Z,37.80
2017-09-30T15:42:48.904Z,37.90
2017-09-30T15:45:16.328Z,38.60
2017-09-30T15:47:43.756Z,39.30
2017-09-30T15:50:11.186Z,39.80
2017-09-30T15:52:38.727Z,39.50
2017-09-30T15:55:06.164Z,39.50
2017-09-30T15:57:33.597Z,39.30
2017-09-30T16:00:01.084Z,39.30
2017-09-30T16:02:28.504Z,39.40
2017-09-30T16:04:55.934Z,39.50
2017-09-30T16:07:24.283Z,40.00
2017-09-30T16:09:51.730Z,40.00
2017-09-30T16:12:19.296Z,40.20
2017-09-30T16:14:46.753Z,39.60
2017-09-30T16:17:14.181Z,40.20
2017-09-30T16:19:41.591Z,41.40
2017-09-30T16:22:09.125Z,41.10
2017-09-30T16:24:36.551Z,41.40
2017-09-30T16:27:04.031Z,40.50
2017-09-30T16:29:31.492Z,40.40
2017-09-30T16:31:58.921Z,40.30
2017-09-30T16:34:26.402Z,40.60
2017-09-30T16:36:53.823Z,40.30
2017-09-30T16:39:21.264Z,40.60
2017-09-30T16:41:48.696Z,40.60
2017-09-30T16:44:16.127Z,39.90
2017-09-30T16:46:43.672Z,39.80
2017-09-30T16:49:11.132Z,41.30
2017-09-30T16:51:38.596Z,40.60
2017-09-30T16:54:06.029Z,40.40
2017-09-30T16:56:33.506Z,41.40
2017-09-30T16:59:00.963Z,41.90
2017-09-30T17:01:28.395Z,41.40
2017-09-30T17:03:55.875Z,40.60
2017-09-30T17:06:23.312Z,41.30
2017-09-30T17:08:50.738Z,41.40
2017-09-30T17:11:18.162Z,42.10
2017-09-30T17:13:45.708Z,43.20
2017-09-30T17:16:13.159Z,42.10
2017-09-30T17:18:40.607Z,42.30
2017-09-30T17:21:08.063Z,42.60
2017-09-30T17:23:35.509Z,43.00
2017-09-30T17:26:02.929Z,43.50
2017-09-30T17:28:30.351Z,43.80
2017-09-30T17:30:57.891Z,43.90
2017-09-30T17:33:25.347Z,44.60
2017-09-30T17:35:52.788Z,45.40
2017-09-30T17:38:20.200Z,45.60
2017-09-30T17:40:48.476Z,45.10
2017-09-30T17:43:16.019Z,45.10
2017-09-30T17:45:43.467Z,45.00
2017-09-30T17:48:11.010Z,45.00
2017-09-30T17:50:38.447Z,45.60
2017-09-30T17:53:05.916Z,44.60
2017-09-30T17:55:33.383Z,44.40
2017-09-30T17:58:00.824Z,43.70
2017-09-30T18:00:28.292Z,44.10
2017-09-30T18:02:56.009Z,44.40
2017-09-30T18:05:23.512Z,44.40
2017-09-30T18:07:50.945Z,44.90
2017-09-30T18:10:18.420Z,45.10
2017-09-30T18:12:45.862Z,45.40
2017-09-30T18:15:14.260Z,45.30
2017-09-30T18:17:41.890Z,45.60
2017-09-30T18:20:09.404Z,46.00
2017-09-30T18:22:36.840Z,46.60
2017-09-30T18:25:04.272Z,46.50
2017-09-30T18:27:31.845Z,46.30
2017-09-30T18:29:59.300Z,46.00
2017-09-30T18:32:26.718Z,45.80
2017-09-30T18:34:54.147Z,45.10
2017-09-30T18:37:21.572Z,45.10
2017-09-30T18:39:49.068Z,45.10
2017-09-30T18:42:16.508Z,46.20
2017-09-30T18:44:43.967Z,45.90
2017-09-30T18:47:11.405Z,45.40
2017-09-30T18:49:38.852Z,45.30
2017-09-30T18:52:06.316Z,45.40
2017-09-30T18:54:34.066Z,45.70
2017-09-30T18:57:01.640Z,45.50
2017-09-30T18:59:29.387Z,46.10
2017-09-30T19:01:56.814Z,45.70
2017-09-30T19:04:24.234Z,46.20
2017-09-30T19:06:52.075Z,46.40
2017-09-30T19:09:19.530Z,46.50
2017-09-30T19:11:46.979Z,47.00
2017-09-30T19:14:14.432Z,46.90
2017-09-30T19:16:41.855Z,47.70
2017-09-30T19:19:09.346Z,47.40
2017-09-30T19:21:36.797Z,46.70
2017-09-30T19:24:04.257Z,46.80
2017-09-30T19:26:31.687Z,47.40
2017-09-30T19:28:59.196Z,46.60
2017-09-30T19:31:26.816Z,46.30
2017-09-30T19:33:54.300Z,46.20
2017-09-30T19:36:21.855Z,45.60
2017-09-30T19:38:49.490Z,46.00
2017-09-30T19:41:16.927Z,46.10
2017-09-30T19:43:44.455Z,46.30
2017-09-30T19:46:11.873Z,46.90
2017-09-30T19:48:39.391Z,46.60
2017-09-30T19:51:06.803Z,46.40
2017-09-30T19:53:34.346Z,46.00
2017-09-30T19:56:01.810Z,45.80
2017-09-30T19:58:29.251Z,44.80
2017-09-30T20:00:56.721Z,45.30
2017-09-30T20:03:24.158Z,44.90
2017-09-30T20:05:51.584Z,44.80
2017-09-30T20:08:19.004Z,44.80
2017-09-30T20:10:46.468Z,44.30
2017-09-30T20:13:14.008Z,44.90
2017-09-30T20:15:41.455Z,44.90
2017-09-30T20:18:08.928Z,44.40
2017-09-30T20:20:36.381Z,44.40
2017-09-30T20:23:03.819Z,43.80
2017-09-30T20:25:31.258Z,43.30
2017-09-30T20:27:58.680Z,43.00
2017-09-30T20:30:26.891Z,43.50
2017-09-30T20:32:55.003Z,43.50
2017-09-30T20:35:22.420Z,43.60
2017-09-30T20:37:49.849Z,43.70
2017-09-30T20:40:17.492Z,43.80
2017-09-30T20:42:45.790Z,43.10
2017-09-30T20:45:14.121Z,42.70
2017-09-30T20:47:41.768Z,42.70
2017-09-30T20:50:09.241Z,43.10
2017-09-30T20:52:36.980Z,43.50
2017-09-30T20:55:04.401Z,43.90
2017-09-30T20:57:31.906Z,44.00
2017-09-30T20:59:59.531Z,44.40
2017-09-30T21:02:26.959Z,43.50
2017-09-30T21:04:56.105Z,44.00
2017-09-30T21:07:23.536Z,43.90
2017-09-30T21:09:51.019Z,44.70
2017-09-30T21:12:18.446Z,44.50
2017-09-30T21:14:45.871Z,43.00
2017-09-30T21:17:13.391Z,41.50
2017-09-30T21:19:40.821Z,41.50
2017-09-30T21:22:08.251Z,40.70
2017-09-30T21:24:35.767Z,40.50
2017-09-30T21:27:03.223Z,40.50
2017-09-30T21:29:30.679Z,40.50
2017-09-30T21:31:58.308Z,40.40
2017-09-30T21:34:25.891Z,40.70
2017-09-30T21:36:53.658Z,40.50
2017-09-30T21:39:21.111Z,40.90
2017-09-30T21:41:48.563Z,40.40
2017-09-30T21:44:16.047Z,40.40
2017-09-30T21:46:43.660Z,40.00
2017-09-30T21:49:11.161Z,40.40
2017-09-30T21:51:38.701Z,40.40
2017-09-30T21:54:06.131Z,40.50
2017-09-30T21:56:33.609Z,40.60
2017-09-30T21:59:01.063Z,40.30
2017-09-30T22:01:28.528Z,41.00
2017-09-30T22:03:56.029Z,40.90
2017-09-30T22:06:23.460Z,41.30
2017-09-30T22:08:51.079Z,41.60
2017-09-30T22:11:18.652Z,41.90
2017-09-30T22:13:46.113Z,42.40
2017-09-30T22:16:13.573Z,42.40
2017-09-30T22:18:41.207Z,42.40
2017-09-30T22:21:08.792Z,42.40
2017-09-30T22:23:36.220Z,42.60
2017-09-30T22:26:03.701Z,42.60
2017-09-30T22:28:31.117Z,43.30
2017-09-30T22:30:58.619Z,42.90
2017-09-30T22:33:26.371Z,42.90
2017-09-30T22:35:53.832Z,42.80
2017-09-30T22:38:21.290Z,42.80
2017-09-30T22:40:48.727Z,42.40
2017-09-30T22:43:16.148Z,42.70
2017-09-30T22:45:43.667Z,43.20
2017-09-30T22:48:11.283Z,43.20
2017-09-30T22:50:39.466Z,43.30
2017-09-30T22:53:06.948Z,42.50
2017-09-30T22:55:34.371Z,42.00
2017-09-30T22:58:01.858Z,42.10
2017-09-30T23:00:29.284Z,41.70
2017-09-30T23:02:56.775Z,42.10
2017-09-30T23:05:24.195Z,42.50
2017-09-30T23:07:51.627Z,42.50
2017-09-30T23:10:19.047Z,43.00
2017-09-30T23:12:46.531Z,43.40
2017-09-30T23:15:13.962Z,43.80
2017-09-30T23:17:41.505Z,43.80
2017-09-30T23:20:08.932Z,43.90
2017-09-30T23:22:36.429Z,43.60
2017-09-30T23:25:04.187Z,43.60
2017-09-30T23:27:31.607Z,43.40
2017-09-30T23:29:59.113Z,43.50
2017-09-30T23:32:26.736Z,43.90
2017-09-30T23:34:54.228Z,43.80
2017-09-30T23:37:21.639Z,44.20
2017-09-30T23:39:49.153Z,44.10
2017-09-30T23:42:16.685Z,44.10
2017-09-30T23:44:44.115Z,44.10
2017-09-30T23:47:11.602Z,44.20
2017-09-30T23:49:39.038Z,44.50
2017-09-30T23:52:06.504Z,44.90
2017-09-30T23:54:33.939Z,46.40
2017-09-30T23:57:01.354Z,47.10
2017-09-30T23:59:28.884Z,47.80
